Terminal Aerodrome Forecast
Issued by NWS Cleveland, OH

Home | Current Version | Previous Version | Graphics & Text | Print | Product List | Glossary Off
Versions: 1 2 3 4 5 6 7 8 9 10 11 12 13 14 15 16 17 18 19 20 21 22 23 24

736
FTUS41 KCLE 232323
TAFCLE
TAF
KCLE 232323Z 2400/2506 36006KT P6SM SKC
     FM240300 18004KT P6SM SKC
     FM241500 25008KT P6SM SCT250
     FM250000 18006KT P6SM BKN250=

USA.gov is the U.S. government's official web portal to all federal, state and local government web resources and services.